Time;durP1;ratioP1;P1;durP2;ratioP2;P2;SDS_P1;SDS_P2;PMS_P1;PMS_P2;Temp;Humidity;BMP_temperature;BMP_pressure;BME280_temperature;BME280_humidity;BME280_pressure;Samples;Min_cycle;Max_cycle;Signal;HPM_P1;HPM_P2
2024/01/25 00:00:46;;;;;;;13.52;2.22;;;8.50;99.90;;;;;;6096615;23;20033;-90
2024/01/25 00:03:12;;;;;;;18.00;3.05;;;8.50;99.90;;;;;;6121124;23;20037;-90
2024/01/25 00:05:37;;;;;;;16.90;3.13;;;8.50;99.90;;;;;;6088096;23;20057;-90
2024/01/25 00:08:03;;;;;;;8.15;2.00;;;8.50;99.90;;;;;;6115901;23;20014;-90
2024/01/25 00:10:29;;;;;;;14.00;2.50;;;8.40;99.90;;;;;;6118567;23;20045;-90
2024/01/25 00:12:54;;;;;;;2.80;1.17;;;8.40;99.90;;;;;;6144243;23;20109;-91
2024/01/25 00:15:20;;;;;;;13.63;3.22;;;8.40;99.90;;;;;;6094012;23;20101;-90
2024/01/25 00:17:46;;;;;;;11.10;2.90;;;8.40;99.90;;;;;;6093829;23;20395;-90
2024/01/25 00:20:11;;;;;;;16.40;2.88;;;8.40;99.90;;;;;;6118942;23;20028;-90
2024/01/25 00:22:41;;;;;;;14.50;2.30;;;8.30;99.90;;;;;;6116707;23;20456;-90
2024/01/25 00:25:07;;;;;;;18.48;3.40;;;8.30;99.90;;;;;;6118285;23;20052;-90
2024/01/25 00:27:32;;;;;;;9.85;1.92;;;8.20;99.90;;;;;;6119462;23;20471;-90
2024/01/25 00:29:58;;;;;;;17.33;2.47;;;8.20;99.90;;;;;;6118995;23;20010;-90
2024/01/25 00:32:24;;;;;;;16.00;2.42;;;8.10;99.90;;;;;;6095969;23;20042;-90
2024/01/25 00:34:50;;;;;;;15.38;3.22;;;8.10;99.90;;;;;;6096423;23;20014;-90
2024/01/25 00:37:15;;;;;;;10.65;1.58;;;8.10;99.90;;;;;;6095503;23;20017;-90
2024/01/25 00:39:42;;;;;;;10.43;3.90;;;8.00;99.90;;;;;;6118896;23;20045;-90
2024/01/25 00:42:07;;;;;;;19.48;2.85;;;8.00;99.90;;;;;;6095745;23;20052;-90
2024/01/25 00:44:33;;;;;;;18.20;1.52;;;8.00;99.90;;;;;;6095195;23;20536;-90
2024/01/25 00:46:59;;;;;;;18.08;2.75;;;8.00;99.90;;;;;;6096535;23;20021;-90
2024/01/25 00:49:25;;;;;;;8.05;2.20;;;8.00;99.90;;;;;;6144254;23;20018;-90
2024/01/25 00:51:58;;;;;;;18.80;3.88;;;8.00;99.90;;;;;;6119161;23;20010;-90
2024/01/25 00:54:24;;;;;;;12.32;3.42;;;7.90;99.90;;;;;;6095096;23;20014;-91
2024/01/25 00:56:52;;;;;;;5.35;1.40;;;7.80;99.90;;;;;;6094939;23;20014;-90
2024/01/25 00:59:18;;;;;;;7.00;1.35;;;7.80;99.90;;;;;;6121008;23;20337;-90
2024/01/25 01:01:47;;;;;;;5.57;1.05;;;7.80;99.90;;;;;;6094608;23;20097;-90
2024/01/25 01:04:13;;;;;;;11.30;4.20;;;7.80;99.90;;;;;;6094614;23;20088;-89
2024/01/25 01:06:39;;;;;;;17.25;2.33;;;7.70;99.90;;;;;;6120146;23;20045;-90
2024/01/25 01:09:04;;;;;;;10.52;1.45;;;7.70;99.90;;;;;;6095275;23;20014;-90
2024/01/25 01:11:30;;;;;;;15.10;2.15;;;7.70;99.90;;;;;;6120273;23;20069;-89
2024/01/25 01:13:56;;;;;;;7.90;2.38;;;7.70;99.90;;;;;;6095728;23;20010;-90
2024/01/25 01:16:21;;;;;;;15.90;1.92;;;7.70;99.90;;;;;;6095608;23;20017;-90
2024/01/25 01:18:47;;;;;;;26.63;3.35;;;7.60;99.90;;;;;;6096758;23;20016;-90
2024/01/25 01:21:13;;;;;;;13.63;3.15;;;7.60;99.90;;;;;;6121938;23;20009;-90
2024/01/25 01:23:38;;;;;;;10.13;2.47;;;7.50;99.90;;;;;;6094646;23;20106;-90
2024/01/25 01:26:05;;;;;;;8.05;2.47;;;7.50;99.90;;;;;;6119836;23;20018;-90
2024/01/25 01:28:31;;;;;;;19.33;2.58;;;7.40;99.90;;;;;;6096375;23;20017;-90
2024/01/25 01:30:56;;;;;;;13.45;3.42;;;7.40;99.90;;;;;;6120718;23;20014;-90
2024/01/25 01:33:22;;;;;;;13.55;2.58;;;7.40;99.90;;;;;;6120258;23;20045;-90
2024/01/25 01:35:48;;;;;;;16.52;4.53;;;7.30;99.90;;;;;;6120771;23;20010;-90
2024/01/25 01:38:13;;;;;;;7.47;1.83;;;7.30;99.90;;;;;;6120299;23;20482;-90
2024/01/25 01:40:39;;;;;;;10.02;1.38;;;7.20;99.90;;;;;;6095355;23;20096;-90
2024/01/25 01:43:05;;;;;;;9.18;2.38;;;7.20;99.90;;;;;;6095937;23;20074;-90
2024/01/25 01:45:30;;;;;;;18.42;2.67;;;7.20;99.90;;;;;;6119006;23;20021;-90
2024/01/25 01:47:56;;;;;;;14.35;3.00;;;7.20;99.90;;;;;;6120085;23;20006;-90
2024/01/25 01:50:23;;;;;;;9.95;1.75;;;7.20;99.90;;;;;;6119685;23;20032;-90
2024/01/25 01:52:49;;;;;;;15.30;3.38;;;7.20;99.90;;;;;;6120883;23;20084;-90
2024/01/25 01:55:17;;;;;;;14.55;2.47;;;7.10;99.90;;;;;;6118746;23;20025;-90
2024/01/25 01:57:43;;;;;;;9.38;1.77;;;7.10;99.90;;;;;;6119246;23;20015;-90
2024/01/25 02:00:09;;;;;;;15.35;2.55;;;7.10;99.90;;;;;;6096359;23;20010;-90
2024/01/25 02:02:36;;;;;;;8.40;1.88;;;7.00;99.90;;;;;;6120416;23;20022;-90
2024/01/25 02:05:02;;;;;;;14.77;3.53;;;6.90;99.90;;;;;;6119845;23;20064;-90
2024/01/25 02:07:29;;;;;;;18.23;2.33;;;6.90;99.90;;;;;;6095598;23;20093;-89
2024/01/25 02:09:54;;;;;;;19.13;2.92;;;6.90;99.90;;;;;;6119300;23;20010;-88
2024/01/25 02:12:20;;;;;;;10.45;2.17;;;6.80;99.90;;;;;;6145578;23;20649;-90
2024/01/25 02:14:46;;;;;;;11.75;2.25;;;6.80;99.90;;;;;;6097553;23;20097;-90
2024/01/25 02:17:11;;;;;;;18.92;2.20;;;6.80;99.90;;;;;;6097671;23;20463;-90
2024/01/25 02:19:37;;;;;;;10.45;2.85;;;6.80;99.90;;;;;;6097806;23;20040;-90
2024/01/25 02:22:06;;;;;;;13.43;1.75;;;6.70;99.90;;;;;;6122693;23;20061;-90
2024/01/25 02:24:31;;;;;;;12.15;2.03;;;6.70;99.90;;;;;;6096057;23;20018;-90
2024/01/25 02:26:57;;;;;;;12.20;2.83;;;6.70;99.90;;;;;;6096793;23;20514;-90
2024/01/25 02:29:23;;;;;;;10.35;2.67;;;6.70;99.90;;;;;;6121052;23;20415;-90
2024/01/25 02:31:48;;;;;;;18.55;4.32;;;6.60;99.90;;;;;;6096999;23;20017;-90
2024/01/25 02:34:14;;;;;;;9.88;2.28;;;6.60;99.90;;;;;;6097171;23;20018;-90
2024/01/25 02:36:40;;;;;;;39.80;3.85;;;6.60;99.90;;;;;;6122000;23;20135;-89
2024/01/25 02:39:05;;;;;;;17.10;2.80;;;6.50;99.90;;;;;;6097086;23;20029;-90
2024/01/25 02:41:32;;;;;;;19.27;2.83;;;6.50;99.90;;;;;;6121848;23;20045;-91
2024/01/25 02:43:57;;;;;;;14.10;2.85;;;6.50;99.90;;;;;;6120773;23;20352;-90
2024/01/25 02:46:23;;;;;;;15.43;2.97;;;6.40;99.90;;;;;;6097211;23;20014;-90
2024/01/25 02:48:49;;;;;;;28.55;3.78;;;6.40;99.90;;;;;;6097767;23;20013;-90
2024/01/25 02:51:14;;;;;;;18.52;3.15;;;6.40;99.90;;;;;;6097913;23;20046;-90
2024/01/25 02:53:40;;;;;;;21.40;2.58;;;6.40;99.90;;;;;;6099024;23;20335;-90
2024/01/25 02:56:07;;;;;;;19.77;3.28;;;6.40;99.90;;;;;;6123701;23;20013;-90
2024/01/25 02:58:33;;;;;;;13.35;1.48;;;6.40;99.90;;;;;;6124923;23;20500;-90
2024/01/25 03:00:58;;;;;;;14.73;3.97;;;6.40;99.90;;;;;;6096771;23;20614;-90
2024/01/25 03:03:24;;;;;;;26.02;3.13;;;6.40;99.90;;;;;;6123291;23;20014;-90
2024/01/25 03:05:51;;;;;;;20.17;4.13;;;6.40;99.90;;;;;;6097437;23;20018;-90
2024/01/25 03:08:17;;;;;;;11.52;2.70;;;6.40;99.90;;;;;;6121935;23;20016;-89
2024/01/25 03:10:43;;;;;;;15.60;2.45;;;6.30;99.90;;;;;;6097174;23;20404;-90
2024/01/25 03:13:09;;;;;;;16.45;3.47;;;6.30;99.90;;;;;;6121731;23;20119;-87
2024/01/25 03:15:35;;;;;;;12.25;3.45;;;6.30;99.90;;;;;;6121397;23;20021;-89
2024/01/25 03:18:00;;;;;;;9.13;2.17;;;6.30;99.90;;;;;;6097309;23;20021;-90
2024/01/25 03:20:26;;;;;;;12.60;2.03;;;6.30;99.90;;;;;;6096484;23;20351;-89
2024/01/25 03:22:52;;;;;;;24.70;3.38;;;6.30;99.90;;;;;;6097031;23;20018;-89
2024/01/25 03:25:17;;;;;;;13.52;2.55;;;6.20;99.90;;;;;;6120362;23;20157;-90
2024/01/25 03:27:43;;;;;;;17.70;2.63;;;6.20;99.90;;;;;;6097633;23;20014;-90
2024/01/25 03:30:09;;;;;;;14.55;3.00;;;6.20;99.90;;;;;;6097624;23;20006;-90
2024/01/25 03:32:36;;;;;;;10.25;2.45;;;6.20;99.90;;;;;;6121619;23;20029;-89
2024/01/25 03:35:01;;;;;;;14.43;3.50;;;6.10;99.90;;;;;;6097108;23;20024;-90
2024/01/25 03:37:27;;;;;;;17.83;3.47;;;6.10;99.90;;;;;;6121407;23;20351;-89
2024/01/25 03:39:53;;;;;;;11.50;2.10;;;6.10;99.90;;;;;;6097210;23;20014;-89
2024/01/25 03:42:18;;;;;;;25.10;2.97;;;6.10;99.90;;;;;;6096152;23;20358;-90
2024/01/25 03:44:44;;;;;;;8.18;1.27;;;6.00;99.90;;;;;;6096382;23;20511;-89
2024/01/25 03:47:10;;;;;;;24.92;5.75;;;6.00;99.90;;;;;;6121838;23;20010;-89
2024/01/25 03:49:37;;;;;;;16.33;4.10;;;6.00;99.90;;;;;;6096976;23;20018;-89
2024/01/25 03:52:06;;;;;;;16.00;2.90;;;6.00;99.90;;;;;;6096054;23;20010;-90
2024/01/25 03:54:32;;;;;;;14.10;2.28;;;6.00;99.90;;;;;;6121282;23;20014;-90
2024/01/25 03:56:58;;;;;;;19.85;3.53;;;6.00;99.90;;;;;;6123245;23;20470;-90
2024/01/25 03:59:23;;;;;;;13.85;3.33;;;6.00;99.90;;;;;;6121413;23;20092;-90
2024/01/25 04:01:49;;;;;;;10.57;2.33;;;6.00;99.90;;;;;;6120910;23;20021;-90
2024/01/25 04:04:15;;;;;;;13.18;2.50;;;6.00;99.90;;;;;;6120643;23;20045;-89
2024/01/25 04:06:42;;;;;;;13.52;3.65;;;5.90;99.90;;;;;;6096560;23;20048;-90
2024/01/25 04:09:11;;;;;;;15.27;2.97;;;6.00;99.90;;;;;;6121117;23;20006;-89
2024/01/25 04:11:37;;;;;;;18.95;2.72;;;6.00;99.90;;;;;;6120991;23;20565;-89
2024/01/25 04:14:04;;;;;;;9.90;2.67;;;5.90;99.90;;;;;;6096586;23;20483;-89
2024/01/25 04:16:32;;;;;;;18.20;3.88;;;5.90;99.90;;;;;;6122710;23;20024;-90
2024/01/25 04:18:58;;;;;;;8.82;1.45;;;5.90;99.90;;;;;;6096599;23;20018;-89
2024/01/25 04:21:23;;;;;;;19.20;2.45;;;5.80;99.90;;;;;;6096191;23;20009;-90
2024/01/25 04:23:49;;;;;;;20.02;3.60;;;5.80;99.90;;;;;;6096307;23;20356;-90
2024/01/25 04:26:16;;;;;;;11.77;1.83;;;5.80;99.90;;;;;;6096314;23;20061;-90
2024/01/25 04:28:42;;;;;;;10.55;3.25;;;5.80;99.90;;;;;;6096538;23;20006;-90
2024/01/25 04:31:07;;;;;;;13.85;3.08;;;5.80;99.90;;;;;;6096871;23;20060;-89
2024/01/25 04:33:33;;;;;;;13.18;2.60;;;5.80;99.90;;;;;;6095892;23;20441;-89
2024/01/25 04:35:59;;;;;;;23.60;3.38;;;5.70;99.90;;;;;;6096442;23;20457;-89
2024/01/25 04:38:25;;;;;;;19.67;3.30;;;5.70;99.90;;;;;;6094888;23;20010;-89
2024/01/25 04:40:50;;;;;;;11.98;2.67;;;5.70;99.90;;;;;;6095621;23;20068;-90
2024/01/25 04:43:16;;;;;;;20.98;3.90;;;5.60;99.90;;;;;;6122178;23;20010;-90
2024/01/25 04:45:42;;;;;;;13.82;2.97;;;5.60;99.90;;;;;;6095812;23;20018;-89
2024/01/25 04:48:08;;;;;;;21.50;3.22;;;5.60;99.90;;;;;;6096118;23;20041;-89
2024/01/25 04:50:33;;;;;;;15.90;3.05;;;5.60;99.90;;;;;;6120285;23;20009;-89
2024/01/25 04:53:02;;;;;;;20.30;3.17;;;5.50;99.90;;;;;;6120411;23;20014;-89
2024/01/25 04:55:27;;;;;;;19.17;4.22;;;5.50;99.90;;;;;;6095695;23;20017;-90
2024/01/25 04:57:53;;;;;;;15.15;2.72;;;5.40;99.90;;;;;;6121013;23;20025;-90
2024/01/25 05:00:21;;;;;;;14.13;2.70;;;5.30;99.90;;;;;;6121233;23;20009;-89
2024/01/25 05:02:47;;;;;;;18.42;2.92;;;5.30;99.90;;;;;;6095378;23;20018;-90
2024/01/25 05:05:13;;;;;;;19.20;2.90;;;5.20;99.90;;;;;;6120115;23;20356;-90
2024/01/25 05:07:38;;;;;;;14.10;3.28;;;5.10;99.90;;;;;;6096271;23;20014;-89
2024/01/25 05:10:04;;;;;;;16.95;2.60;;;5.00;99.90;;;;;;6120691;23;20017;-89
2024/01/25 05:12:30;;;;;;;17.88;3.17;;;4.90;99.90;;;;;;6122424;23;20010;-89
2024/01/25 05:14:56;;;;;;;10.18;2.67;;;4.80;99.90;;;;;;6096502;23;20041;-90
2024/01/25 05:17:21;;;;;;;12.98;2.20;;;4.80;99.90;;;;;;6124129;23;20358;-90
2024/01/25 05:19:47;;;;;;;5.93;2.05;;;4.70;99.90;;;;;;6100079;23;20066;-90
2024/01/25 05:22:12;;;;;;;14.73;2.88;;;4.70;99.90;;;;;;6097418;23;20045;-89
2024/01/25 05:24:38;;;;;;;11.43;1.83;;;4.70;99.90;;;;;;6094968;23;20022;-89
2024/01/25 05:27:04;;;;;;;7.05;1.55;;;4.60;99.90;;;;;;6119702;23;20013;-89
2024/01/25 05:29:29;;;;;;;11.50;2.45;;;4.60;99.90;;;;;;6096286;23;20029;-90
2024/01/25 05:31:55;;;;;;;17.30;3.35;;;4.60;99.90;;;;;;6120235;23;20014;-90
2024/01/25 05:34:21;;;;;;;16.85;2.90;;;4.60;99.90;;;;;;6095703;23;20025;-90
2024/01/25 05:36:47;;;;;;;16.50;4.18;;;4.60;99.90;;;;;;6120879;23;20022;-89
2024/01/25 05:39:13;;;;;;;9.20;2.03;;;4.60;99.90;;;;;;6120457;23;20014;-90
2024/01/25 05:41:39;;;;;;;8.73;2.22;;;4.60;99.90;;;;;;6095974;23;20017;-90
2024/01/25 05:44:05;;;;;;;21.85;3.85;;;4.60;99.90;;;;;;6121262;23;20534;-90
2024/01/25 05:46:30;;;;;;;27.98;3.97;;;4.60;99.90;;;;;;6119629;23;20041;-89
2024/01/25 05:48:56;;;;;;;9.60;1.95;;;4.60;99.90;;;;;;6095176;23;20154;-89
2024/01/25 05:51:21;;;;;;;15.95;4.00;;;4.60;99.90;;;;;;6120913;23;20010;-89
2024/01/25 05:53:47;;;;;;;11.93;2.38;;;4.60;99.90;;;;;;6095599;23;20014;-89
2024/01/25 05:56:13;;;;;;;16.65;3.38;;;4.50;99.90;;;;;;6144888;23;20006;-90
2024/01/25 05:58:38;;;;;;;21.40;3.38;;;4.50;99.90;;;;;;6095823;23;20010;-89
2024/01/25 06:01:04;;;;;;;15.38;2.72;;;4.50;99.90;;;;;;6120592;23;20010;-89
2024/01/25 06:03:30;;;;;;;18.27;2.85;;;4.50;99.90;;;;;;6095664;23;20014;-89
2024/01/25 06:05:55;;;;;;;11.35;3.10;;;4.50;99.90;;;;;;6095182;23;20018;-90
2024/01/25 06:08:21;;;;;;;25.40;3.40;;;4.50;99.90;;;;;;6095497;23;20108;-89
2024/01/25 06:10:47;;;;;;;19.42;2.92;;;4.50;99.90;;;;;;6095896;23;20018;-89
2024/01/25 06:13:13;;;;;;;19.08;2.63;;;4.50;99.90;;;;;;6121422;23;20009;-89
2024/01/25 06:15:39;;;;;;;15.70;2.38;;;4.50;99.90;;;;;;6121530;23;20076;-89
2024/01/25 06:18:04;;;;;;;15.48;3.70;;;4.60;99.90;;;;;;6120042;23;20080;-90
2024/01/25 06:20:30;;;;;;;19.00;3.58;;;4.60;99.90;;;;;;6095643;23;20455;-89
2024/01/25 06:22:56;;;;;;;17.27;2.60;;;4.60;99.90;;;;;;6094974;23;20073;-89
2024/01/25 06:25:22;;;;;;;15.82;3.22;;;4.70;99.90;;;;;;6094813;23;20021;-90
2024/01/25 06:27:48;;;;;;;16.67;4.20;;;4.70;99.90;;;;;;6095255;23;20344;-90
2024/01/25 06:30:14;;;;;;;19.60;4.32;;;4.60;99.90;;;;;;6095661;23;20018;-90
2024/01/25 06:32:40;;;;;;;22.23;3.92;;;4.60;99.90;;;;;;6095431;23;20013;-90
2024/01/25 06:35:06;;;;;;;14.00;3.33;;;4.50;99.90;;;;;;6119310;23;20403;-90
2024/01/25 06:37:32;;;;;;;16.58;3.83;;;4.40;99.90;;;;;;6119486;23;20060;-90
2024/01/25 06:39:57;;;;;;;9.02;2.13;;;4.40;99.90;;;;;;6121912;23;20093;-90
2024/01/25 06:42:23;;;;;;;24.58;4.22;;;4.40;99.90;;;;;;6095387;23;20014;-91
2024/01/25 06:44:48;;;;;;;7.97;3.72;;;4.40;99.90;;;;;;6120742;23;20010;-89
2024/01/25 06:47:14;;;;;;;15.43;3.65;;;4.40;99.90;;;;;;6143371;23;20025;-90
2024/01/25 06:49:39;;;;;;;10.85;2.15;;;4.30;99.90;;;;;;6095288;23;20014;-90
2024/01/25 06:52:05;;;;;;;8.30;3.17;;;4.30;99.90;;;;;;6119278;23;20018;-90
2024/01/25 06:54:31;;;;;;;8.60;2.30;;;4.20;99.90;;;;;;6119574;23;20091;-90
2024/01/25 06:56:57;;;;;;;15.98;3.15;;;4.20;99.90;;;;;;6119852;23;20507;-90
2024/01/25 06:59:23;;;;;;;10.52;2.70;;;4.10;99.90;;;;;;6123559;23;20021;-90
2024/01/25 07:01:49;;;;;;;20.80;3.10;;;4.00;99.90;;;;;;6121692;23;20013;-89
2024/01/25 07:04:15;;;;;;;20.45;3.08;;;4.00;99.90;;;;;;6122991;23;20384;-89
2024/01/25 07:06:40;;;;;;;14.80;2.40;;;3.90;99.90;;;;;;6120893;23;20006;-89
2024/01/25 07:09:06;;;;;;;16.27;3.05;;;3.80;99.90;;;;;;6120626;23;20661;-89
2024/01/25 07:11:32;;;;;;;14.98;3.22;;;3.80;99.90;;;;;;6097156;23;20060;-89
2024/01/25 07:13:57;;;;;;;15.35;2.75;;;3.70;99.90;;;;;;6096628;23;20017;-90
2024/01/25 07:16:23;;;;;;;22.48;3.78;;;3.70;99.90;;;;;;6121663;23;20119;-89
2024/01/25 07:18:49;;;;;;;14.30;2.90;;;3.70;99.90;;;;;;6121320;23;20368;-90
2024/01/25 07:21:15;;;;;;;21.15;3.30;;;3.60;99.90;;;;;;6121875;23;20023;-90
2024/01/25 07:23:41;;;;;;;13.98;2.65;;;3.60;99.90;;;;;;6123144;23;20014;-90
2024/01/25 07:26:06;;;;;;;21.98;4.07;;;3.60;99.90;;;;;;6120802;23;20010;-89
2024/01/25 07:28:32;;;;;;;13.00;2.70;;;3.50;99.90;;;;;;6097195;23;20563;-90
2024/01/25 07:30:57;;;;;;;15.57;3.47;;;3.50;99.90;;;;;;6097665;23;20376;-89
2024/01/25 07:33:23;;;;;;;21.20;3.13;;;3.60;99.90;;;;;;6097130;23;20017;-90
2024/01/25 07:35:49;;;;;;;20.20;3.92;;;3.60;99.90;;;;;;6120841;23;20021;-90
2024/01/25 07:38:15;;;;;;;23.73;3.78;;;3.60;99.90;;;;;;6123243;23;20317;-89
2024/01/25 07:40:41;;;;;;;13.13;2.42;;;3.60;99.90;;;;;;6099127;23;20009;-90
2024/01/25 07:43:07;;;;;;;11.30;2.17;;;3.60;99.90;;;;;;6126066;23;20018;-89
2024/01/25 07:45:32;;;;;;;17.50;3.65;;;3.60;99.90;;;;;;6130467;23;20097;-90
2024/01/25 07:47:58;;;;;;;15.18;3.03;;;3.60;99.90;;;;;;6097251;23;20045;-90
2024/01/25 07:50:24;;;;;;;9.27;2.03;;;3.60;99.90;;;;;;6121496;23;20014;-90
2024/01/25 07:52:50;;;;;;;7.53;2.00;;;3.60;99.90;;;;;;6096139;23;20482;-90
2024/01/25 07:55:16;;;;;;;20.13;3.05;;;3.60;99.90;;;;;;6121059;23;20033;-90
2024/01/25 07:57:42;;;;;;;20.50;5.13;;;3.60;99.90;;;;;;6121269;23;20089;-90
2024/01/25 08:00:08;;;;;;;14.20;2.47;;;3.60;99.90;;;;;;6121943;23;20449;-89
2024/01/25 08:02:35;;;;;;;18.27;3.72;;;3.60;99.90;;;;;;6120396;23;20456;-90
2024/01/25 08:05:01;;;;;;;24.02;3.42;;;3.60;99.90;;;;;;6121212;23;20014;-90
2024/01/25 08:07:28;;;;;;;23.17;4.65;;;3.60;99.90;;;;;;6146009;23;20519;-91
2024/01/25 08:09:57;;;;;;;20.35;4.15;;;3.70;99.90;;;;;;6121488;23;20014;-90
2024/01/25 08:12:23;;;;;;;22.80;4.13;;;3.70;99.90;;;;;;6097377;23;20068;-90
2024/01/25 08:14:49;;;;;;;16.60;3.40;;;3.70;99.90;;;;;;6120633;23;20105;-89
2024/01/25 08:17:15;;;;;;;14.30;2.88;;;3.70;99.90;;;;;;6123466;23;20048;-90
2024/01/25 08:19:40;;;;;;;23.33;4.13;;;3.70;99.90;;;;;;6096959;23;20083;-89
2024/01/25 08:22:06;;;;;;;23.90;3.53;;;3.80;99.90;;;;;;6096781;23;20018;-89
2024/01/25 08:24:32;;;;;;;21.85;3.55;;;3.80;99.90;;;;;;6120258;23;20014;-89
2024/01/25 08:26:57;;;;;;;17.02;3.22;;;3.80;99.90;;;;;;6120374;23;20014;-90
2024/01/25 08:29:23;;;;;;;26.98;5.05;;;3.90;99.90;;;;;;6097030;23;20349;-90
2024/01/25 08:31:48;;;;;;;20.90;4.85;;;3.90;99.90;;;;;;6121094;23;20013;-90
2024/01/25 08:34:14;;;;;;;12.43;3.10;;;4.00;99.90;;;;;;6120729;23;20025;-89
2024/01/25 08:36:40;;;;;;;18.25;2.85;;;4.00;99.90;;;;;;6122433;23;20021;-88
2024/01/25 08:39:08;;;;;;;18.85;3.67;;;4.10;99.90;;;;;;6095239;23;20025;-88
2024/01/25 08:41:34;;;;;;;15.10;3.00;;;4.20;99.90;;;;;;6120658;23;20126;-88
2024/01/25 08:44:00;;;;;;;13.57;2.80;;;4.20;99.90;;;;;;6118765;23;20010;-89
2024/01/25 08:46:26;;;;;;;26.75;4.68;;;4.20;99.90;;;;;;6094398;23;20020;-90
2024/01/25 08:48:52;;;;;;;11.60;2.65;;;4.30;99.90;;;;;;6121585;23;20048;-89
2024/01/25 08:51:17;;;;;;;13.95;3.15;;;4.40;99.90;;;;;;6094927;23;20084;-89
2024/01/25 08:53:43;;;;;;;22.00;3.53;;;4.40;99.90;;;;;;6095387;23;20072;-90
2024/01/25 08:56:09;;;;;;;27.35;3.92;;;4.40;99.90;;;;;;6118565;23;20513;-89
2024/01/25 08:58:35;;;;;;;16.83;2.90;;;4.50;99.90;;;;;;6096349;23;20093;-90
2024/01/25 09:01:01;;;;;;;15.40;2.85;;;4.50;99.90;;;;;;6095961;23;20048;-89
2024/01/25 09:03:26;;;;;;;9.88;2.60;;;4.60;99.90;;;;;;6119865;23;20518;-89
2024/01/25 09:05:52;;;;;;;17.83;3.17;;;4.60;99.90;;;;;;6119961;23;20018;-90
2024/01/25 09:08:18;;;;;;;28.45;4.55;;;4.70;99.90;;;;;;6096562;23;20009;-89
2024/01/25 09:10:44;;;;;;;20.90;4.35;;;4.70;99.90;;;;;;6096147;23;20100;-89
2024/01/25 09:13:10;;;;;;;10.70;2.50;;;4.80;99.90;;;;;;6096186;23;20432;-90
2024/01/25 09:15:36;;;;;;;12.98;2.72;;;4.80;99.90;;;;;;6119666;23;20047;-90
2024/01/25 09:18:01;;;;;;;11.00;2.63;;;4.90;99.90;;;;;;6095934;23;20014;-89
2024/01/25 09:20:27;;;;;;;15.18;2.50;;;4.90;99.90;;;;;;6122340;23;20025;-89
2024/01/25 09:22:53;;;;;;;12.80;2.38;;;5.00;99.90;;;;;;6120186;23;20024;-89
2024/01/25 09:25:19;;;;;;;12.20;3.38;;;5.00;99.90;;;;;;6120371;23;20044;-89
2024/01/25 09:27:45;;;;;;;15.90;3.58;;;5.10;99.90;;;;;;6120478;23;20054;-89
2024/01/25 09:30:11;;;;;;;15.25;4.03;;;5.20;99.90;;;;;;6096145;23;20021;-89
2024/01/25 09:32:37;;;;;;;22.23;3.78;;;5.30;99.90;;;;;;6120439;23;20617;-91
2024/01/25 09:35:03;;;;;;;25.58;5.53;;;5.40;99.90;;;;;;6144631;23;20025;-89
2024/01/25 09:37:28;;;;;;;10.45;2.38;;;5.40;99.90;;;;;;6096037;23;20049;-89
2024/01/25 09:39:54;;;;;;;18.58;3.15;;;5.50;99.90;;;;;;6096065;23;20021;-89
2024/01/25 09:42:19;;;;;;;12.18;2.38;;;5.60;99.90;;;;;;6095726;23;20017;-90
2024/01/25 09:44:45;;;;;;;22.85;3.50;;;5.60;99.90;;;;;;6119494;23;20392;-90
2024/01/25 09:47:12;;;;;;;14.73;3.25;;;5.70;99.90;;;;;;6120535;23;20021;-89
2024/01/25 09:49:38;;;;;;;19.70;4.13;;;5.70;99.90;;;;;;6096028;23;20115;-89
2024/01/25 09:52:04;;;;;;;20.20;3.83;;;5.80;99.90;;;;;;6095945;23;20017;-90
2024/01/25 09:54:35;;;;;;;13.20;3.15;;;5.80;99.90;;;;;;6120021;23;20010;-90
2024/01/25 09:57:06;;;;;;;18.70;3.53;;;5.80;99.90;;;;;;6120738;23;20009;-90
2024/01/25 09:59:32;;;;;;;15.80;2.80;;;5.90;99.90;;;;;;6120412;23;20014;-90
2024/01/25 10:02:01;;;;;;;13.13;2.70;;;5.90;99.90;;;;;;6122431;23;20079;-90
2024/01/25 10:04:26;;;;;;;12.55;3.25;;;6.00;99.90;;;;;;6119728;23;20068;-90
2024/01/25 10:06:56;;;;;;;14.60;2.90;;;6.00;99.90;;;;;;6122413;23;20006;-90
2024/01/25 10:09:22;;;;;;;14.13;2.95;;;6.00;99.90;;;;;;6096802;23;20021;-90
2024/01/25 10:11:48;;;;;;;18.30;4.18;;;6.10;99.90;;;;;;6128328;23;20010;-90
2024/01/25 10:14:13;;;;;;;19.13;2.95;;;6.10;99.90;;;;;;6123104;23;20085;-89
2024/01/25 10:16:39;;;;;;;15.70;3.72;;;6.20;99.90;;;;;;6095630;23;20322;-89
2024/01/25 10:19:08;;;;;;;14.68;3.25;;;6.20;99.90;;;;;;6120159;23;20014;-90
2024/01/25 10:21:36;;;;;;;22.05;3.72;;;6.30;99.90;;;;;;6096123;23;20518;-90
2024/01/25 10:24:02;;;;;;;10.52;2.30;;;6.40;99.90;;;;;;6120318;23;20460;-90
2024/01/25 10:26:28;;;;;;;18.85;3.05;;;6.50;99.90;;;;;;6094891;23;20088;-89
2024/01/25 10:28:54;;;;;;;21.95;4.22;;;6.50;99.90;;;;;;6095805;23;20017;-90
2024/01/25 10:31:24;;;;;;;19.70;4.25;;;6.60;99.90;;;;;;6120613;23;20088;-89
2024/01/25 10:33:54;;;;;;;22.23;4.15;;;6.70;99.90;;;;;;6121217;23;20013;-89
2024/01/25 10:36:23;;;;;;;12.02;1.85;;;6.70;99.90;;;;;;6122111;23;20014;-90
2024/01/25 10:38:52;;;;;;;15.30;3.65;;;6.80;99.90;;;;;;6097611;23;20412;-90
2024/01/25 10:41:19;;;;;;;21.10;3.42;;;6.90;99.90;;;;;;6098030;23;20014;-90
2024/01/25 10:43:45;;;;;;;29.65;4.55;;;6.90;99.90;;;;;;6097047;23;20014;-89
2024/01/25 10:46:11;;;;;;;18.50;4.13;;;7.00;99.90;;;;;;6121677;23;20013;-90
2024/01/25 10:48:37;;;;;;;21.77;3.97;;;7.00;99.90;;;;;;6097122;23;20399;-90
2024/01/25 10:51:05;;;;;;;15.75;3.60;;;7.10;99.90;;;;;;6098109;23;20032;-90
2024/01/25 10:53:35;;;;;;;18.70;3.60;;;7.10;99.90;;;;;;6097255;23;20006;-90
2024/01/25 10:56:01;;;;;;;19.33;4.72;;;7.10;99.90;;;;;;6123041;23;20020;-89
2024/01/25 10:58:35;;;;;;;22.55;3.75;;;7.20;99.90;;;;;;6097082;23;20072;-90
2024/01/25 11:01:03;;;;;;;20.48;5.10;;;7.20;99.90;;;;;;6122072;23;20048;-90
2024/01/25 11:03:30;;;;;;;22.70;3.78;;;7.30;99.90;;;;;;6120642;23;20343;-90
2024/01/25 11:06:09;;;;;;;27.35;5.40;;;7.40;99.90;;;;;;6096857;23;20061;-89
2024/01/25 11:08:38;;;;;;;22.02;4.60;;;7.50;99.90;;;;;;6122211;23;20085;-89
2024/01/25 11:11:12;;;;;;;25.52;4.72;;;7.60;99.90;;;;;;6097459;23;20475;-90
2024/01/25 11:13:40;;;;;;;18.42;3.63;;;7.70;99.90;;;;;;6123433;23;20080;-90
2024/01/25 11:16:17;;;;;;;25.48;5.80;;;7.70;99.90;;;;;;6121777;23;20013;-91
2024/01/25 11:18:54;;;;;;;14.88;3.88;;;7.80;99.90;;;;;;6121834;23;20149;-90
2024/01/25 11:21:39;;;;;;;15.20;4.30;;;7.90;99.90;;;;;;6097334;23;20025;-90
2024/01/25 11:24:05;;;;;;;20.95;4.45;;;8.00;99.90;;;;;;6096447;23;20116;-91
2024/01/25 11:26:34;;;;;;;17.60;3.70;;;8.10;99.90;;;;;;6121191;23;20085;-90
2024/01/25 11:29:00;;;;;;;21.30;2.78;;;8.20;99.90;;;;;;6097300;23;20018;-90
2024/01/25 11:31:27;;;;;;;22.38;5.03;;;8.40;99.90;;;;;;6096657;23;20157;-88
2024/01/25 11:34:00;;;;;;;25.08;6.35;;;8.50;99.90;;;;;;6096791;23;20341;-91
2024/01/25 11:36:26;;;;;;;17.92;3.45;;;8.50;99.90;;;;;;6121851;23;20005;-90
2024/01/25 11:38:52;;;;;;;25.90;5.47;;;8.60;99.90;;;;;;6096998;23;20065;-90
2024/01/25 11:41:19;;;;;;;16.67;2.95;;;8.70;99.90;;;;;;6121794;23;20022;-91
2024/01/25 11:43:44;;;;;;;17.55;4.47;;;8.70;99.90;;;;;;6097175;23;20018;-90
2024/01/25 11:46:10;;;;;;;23.73;4.47;;;8.70;99.90;;;;;;6120352;23;20048;-92
2024/01/25 11:48:42;;;;;;;24.30;4.95;;;8.70;99.90;;;;;;6118591;23;20108;-91
2024/01/25 11:51:11;;;;;;;20.58;3.70;;;8.70;99.90;;;;;;6093734;23;20053;-92
2024/01/25 11:53:37;;;;;;;23.75;4.32;;;8.80;99.90;;;;;;6144299;23;20010;-92
2024/01/25 11:56:08;;;;;;;18.63;3.03;;;8.80;99.90;;;;;;6121230;23;20368;-91
2024/01/25 11:58:35;;;;;;;10.88;2.30;;;8.80;99.90;;;;;;6096410;23;20014;-93
2024/01/25 12:01:05;;;;;;;16.17;3.72;;;8.70;99.90;;;;;;6121990;23;20018;-91
2024/01/25 12:03:32;;;;;;;12.35;3.70;;;8.70;99.90;;;;;;6120039;23;20009;-91
2024/01/25 12:05:59;;;;;;;21.65;4.70;;;8.70;99.90;;;;;;6120214;23;20045;-92
2024/01/25 12:08:24;;;;;;;12.85;3.65;;;8.60;99.90;;;;;;6120798;23;20093;-91
2024/01/25 12:10:50;;;;;;;16.45;4.63;;;8.60;99.90;;;;;;6096328;23;20049;-91
2024/01/25 12:13:16;;;;;;;26.80;4.78;;;8.50;99.90;;;;;;6119478;23;20021;-91
2024/01/25 12:15:42;;;;;;;19.30;5.57;;;8.60;99.90;;;;;;6095677;23;20516;-91
2024/01/25 12:18:08;;;;;;;19.70;5.45;;;8.50;99.90;;;;;;6120896;23;20046;-91
2024/01/25 12:20:36;;;;;;;16.50;2.97;;;8.50;99.90;;;;;;6121495;23;20036;-91
2024/01/25 12:23:02;;;;;;;15.10;2.08;;;8.50;99.90;;;;;;6096299;23;20097;-92
2024/01/25 12:25:27;;;;;;;27.85;5.13;;;8.50;99.90;;;;;;6119528;23;20057;-91
2024/01/25 12:27:53;;;;;;;22.15;4.18;;;8.50;99.90;;;;;;6094882;23;20267;-92
2024/01/25 12:30:19;;;;;;;19.15;3.92;;;8.50;99.90;;;;;;6119848;23;20013;-92
2024/01/25 12:32:47;;;;;;;9.95;2.85;;;8.60;99.90;;;;;;6095954;23;20010;-92
2024/01/25 12:35:13;;;;;;;20.05;3.67;;;8.60;99.90;;;;;;6120162;23;20032;-91
2024/01/25 12:37:39;;;;;;;21.38;4.30;;;8.70;99.90;;;;;;6121701;23;20013;-91
2024/01/25 12:40:05;;;;;;;18.17;2.90;;;9.10;99.90;;;;;;6098644;23;20021;-90
2024/01/25 12:42:31;;;;;;;17.88;4.07;;;9.30;99.90;;;;;;6123121;23;20025;-92